createdAt,value
2019-04-14T00:04:48.687Z,25.43
2019-04-14T00:09:54.254Z,25.60
2019-04-14T00:14:59.892Z,25.70
2019-04-14T00:20:05.581Z,25.10
2019-04-14T00:25:11.436Z,26.13
2019-04-14T00:30:18.802Z,26.73
2019-04-14T00:35:43.527Z,26.63
2019-04-14T00:40:56.689Z,24.73
2019-04-14T00:46:07.966Z,26.70
2019-04-14T00:51:13.629Z,26.40
2019-04-14T00:56:19.503Z,27.80
2019-04-14T01:01:26.269Z,27.13
2019-04-14T01:06:32.176Z,26.97
2019-04-14T01:11:37.882Z,29.33
2019-04-14T01:16:43.347Z,28.23
2019-04-14T01:21:48.775Z,28.80
2019-04-14T01:26:55.039Z,29.23
2019-04-14T01:32:00.619Z,27.97
2019-04-14T01:37:07.202Z,27.63
2019-04-14T01:42:13.747Z,26.63
2019-04-14T01:47:20.488Z,26.67
2019-04-14T01:52:43.676Z,26.07
2019-04-14T01:58:23.232Z,28.07
2019-04-14T02:03:28.764Z,28.57
2019-04-14T02:08:35.206Z,28.20
2019-04-14T02:13:42.014Z,28.13
2019-04-14T02:18:50.642Z,27.93
2019-04-14T02:23:56.056Z,27.73
2019-04-14T02:29:01.577Z,28.43
2019-04-14T02:34:43.775Z,28.70
2019-04-14T02:39:46.752Z,27.67
2019-04-14T02:44:57.739Z,29.27
2019-04-14T02:50:02.480Z,26.87
2019-04-14T02:54:59.545Z,25.43
2019-04-14T03:00:11.320Z,26.27
2019-04-14T03:05:27.063Z,26.83
2019-04-14T03:10:25.860Z,28.13
2019-04-14T03:15:37.835Z,28.40
2019-04-14T03:21:13.456Z,27.30
2019-04-14T03:26:40.348Z,28.50
2019-04-14T03:32:00.016Z,28.13
2019-04-14T03:37:31.526Z,29.70
2019-04-14T03:42:01.543Z,26.77
2019-04-14T03:47:05.258Z,28.13
2019-04-14T03:52:13.014Z,28.13
2019-04-14T03:56:55.664Z,28.70
2019-04-14T04:02:01.350Z,28.43
2019-04-14T04:07:08.126Z,28.87
2019-04-14T04:12:13.983Z,27.97
2019-04-14T04:17:45.145Z,28.60
2019-04-14T04:23:18.931Z,28.20
2019-04-14T04:28:43.421Z,28.40
2019-04-14T04:34:09.915Z,26.97
2019-04-14T04:39:19.803Z,27.80
2019-04-14T04:44:26.939Z,28.30
2019-04-14T04:49:33.077Z,28.13
2019-04-14T04:54:40.679Z,27.87
2019-04-14T04:59:47.411Z,28.63
2019-04-14T05:04:53.262Z,29.13
2019-04-14T05:10:28.364Z,28.63
2019-04-14T05:15:44.617Z,31.07
2019-04-14T05:20:51.015Z,31.17
2019-04-14T05:25:58.041Z,30.83
2019-04-14T05:31:03.782Z,31.13
2019-04-14T05:36:10.636Z,30.60
2019-04-14T05:41:16.279Z,30.83
2019-04-14T05:46:22.977Z,30.60
2019-04-14T05:51:28.577Z,31.03
2019-04-14T05:56:35.884Z,30.77
2019-04-14T06:01:42.055Z,30.33
2019-04-14T06:06:47.597Z,30.67
2019-04-14T06:11:53.050Z,28.27
2019-04-14T06:16:58.491Z,30.07
2019-04-14T06:22:03.933Z,28.00
2019-04-14T06:27:09.462Z,29.60
2019-04-14T06:32:32.459Z,30.00
2019-04-14T06:37:43.299Z,29.10
2019-04-14T06:42:48.798Z,29.00
2019-04-14T06:47:54.242Z,26.80
2019-04-14T06:52:59.695Z,26.73
2019-04-14T06:58:05.135Z,25.47
2019-04-14T07:03:10.612Z,25.83
2019-04-14T07:08:16.082Z,25.23
2019-04-14T07:13:21.662Z,25.73
2019-04-14T07:18:27.120Z,24.07
2019-04-14T07:23:32.688Z,23.83
2019-04-14T07:28:38.178Z,21.07
2019-04-14T07:34:02.585Z,20.87
2019-04-14T07:39:30.004Z,21.53
2019-04-14T07:45:03.414Z,20.43
2019-04-14T07:50:46.155Z,18.53
2019-04-14T07:56:13.529Z,18.93
2019-04-14T08:01:25.994Z,17.70
2019-04-14T08:06:32.210Z,18.33
2019-04-14T08:11:38.060Z,16.67
2019-04-14T08:16:43.749Z,16.70
2019-04-14T08:21:49.357Z,16.97
2019-04-14T08:26:54.809Z,17.03
2019-04-14T08:32:00.319Z,16.50
2019-04-14T08:37:05.883Z,16.57
2019-04-14T08:42:20.859Z,16.93
2019-04-14T08:47:32.607Z,16.67
2019-04-14T08:52:59.792Z,16.50
2019-04-14T08:58:33.033Z,16.20
2019-04-14T09:03:57.586Z,16.53
2019-04-14T09:09:24.953Z,15.97
2019-04-14T09:14:30.438Z,14.93
2019-04-14T09:19:35.919Z,14.90
2019-04-14T09:24:41.504Z,14.77
2019-04-14T09:29:47.072Z,14.90
2019-04-14T09:34:52.533Z,14.57
2019-04-14T09:39:57.989Z,14.63
2019-04-14T09:45:03.526Z,14.10
2019-04-14T09:50:08.960Z,15.27
2019-04-14T09:55:14.975Z,14.37
2019-04-14T10:00:21.081Z,14.30
2019-04-14T10:05:26.676Z,14.77
2019-04-14T10:10:32.098Z,15.73
2019-04-14T10:15:40.259Z,15.23
2019-04-14T10:20:46.300Z,15.73
2019-04-14T10:25:52.419Z,15.63
2019-04-14T10:30:57.944Z,14.80
2019-04-14T10:36:03.391Z,15.17
2019-04-14T10:41:08.864Z,15.90
2019-04-14T10:46:14.311Z,15.50
2019-04-14T10:51:29.526Z,14.77
2019-04-14T10:56:27.102Z,13.90
2019-04-14T11:01:32.617Z,14.40
2019-04-14T11:06:41.628Z,14.30
2019-04-14T11:11:47.112Z,14.73
2019-04-14T11:16:52.684Z,15.03
2019-04-14T11:21:58.251Z,13.80
2019-04-14T11:27:03.738Z,13.33
2019-04-14T11:32:28.179Z,12.97
2019-04-14T11:37:58.416Z,13.03
2019-04-14T11:43:04.088Z,12.30
2019-04-14T11:48:09.563Z,12.47
2019-04-14T11:53:15.063Z,12.83
2019-04-14T11:58:20.534Z,11.67
2019-04-14T12:03:41.549Z,12.53
2019-04-14T12:09:05.880Z,11.67
2019-04-14T12:14:11.570Z,11.20
2019-04-14T12:19:17.050Z,11.30
2019-04-14T12:24:22.483Z,11.23
2019-04-14T12:29:28.233Z,11.70
2019-04-14T12:34:33.716Z,10.20
2019-04-14T12:39:39.279Z,10.60
2019-04-14T12:45:03.609Z,9.33
2019-04-14T12:50:17.519Z,11.00
2019-04-14T12:55:22.935Z,10.87
2019-04-14T13:00:53.389Z,9.87
2019-04-14T13:05:58.915Z,10.50
2019-04-14T13:11:05.097Z,10.03
2019-04-14T13:16:10.569Z,10.20
2019-04-14T13:21:16.006Z,10.87
2019-04-14T13:26:21.411Z,10.80
2019-04-14T13:31:26.852Z,10.77
2019-04-14T13:36:32.287Z,10.30
2019-04-14T13:41:38.350Z,11.27
2019-04-14T13:46:43.833Z,11.97
2019-04-14T13:51:49.250Z,11.73
2019-04-14T13:56:54.825Z,11.03
2019-04-14T14:02:00.227Z,11.97
2019-04-14T14:07:06.290Z,12.33
2019-04-14T14:12:23.144Z,11.57
2019-04-14T14:17:39.751Z,12.37
2019-04-14T14:23:01.187Z,12.30
2019-04-14T14:28:06.665Z,11.70
2019-04-14T14:33:12.074Z,12.53
2019-04-14T14:38:17.568Z,11.20
2019-04-14T14:43:23.135Z,11.80
2019-04-14T14:48:38.500Z,11.97
2019-04-14T14:53:43.988Z,12.20
2019-04-14T14:58:49.463Z,12.50
2019-04-14T15:03:55.015Z,11.47
2019-04-14T15:09:00.505Z,10.83
2019-04-14T15:14:06.976Z,11.33
2019-04-14T15:19:12.539Z,11.77
2019-04-14T15:24:18.115Z,11.97
2019-04-14T15:29:23.613Z,11.83
2019-04-14T15:34:29.148Z,12.03
2019-04-14T15:39:37.412Z,11.43
2019-04-14T15:44:41.721Z,11.07
2019-04-14T15:49:47.219Z,11.23
2019-04-14T15:54:52.783Z,11.27
2019-04-14T16:00:11.445Z,11.27
2019-04-14T16:05:26.486Z,10.90
2019-04-14T16:10:48.749Z,11.60
2019-04-14T16:15:59.944Z,11.37
2019-04-14T16:21:05.474Z,11.40
2019-04-14T16:26:29.840Z,11.63
2019-04-14T16:32:03.326Z,11.43
2019-04-14T16:37:08.861Z,11.43
2019-04-14T16:42:14.323Z,11.80
2019-04-14T16:47:19.741Z,11.83
2019-04-14T16:52:33.714Z,11.40
2019-04-14T16:57:56.875Z,11.50
2019-04-14T17:03:02.430Z,12.20
2019-04-14T17:08:07.905Z,11.47
2019-04-14T17:13:13.435Z,11.60
2019-04-14T17:18:35.126Z,11.57
2019-04-14T17:23:45.360Z,11.73
2019-04-14T17:28:58.178Z,11.93
2019-04-14T17:34:14.116Z,11.97
2019-04-14T17:39:28.473Z,12.57
2019-04-14T17:44:41.319Z,11.73
2019-04-14T17:50:11.451Z,11.97
2019-04-14T17:55:33.248Z,12.23
2019-04-14T18:01:03.473Z,12.07
2019-04-14T18:06:33.614Z,10.83
2019-04-14T18:11:43.482Z,11.27
2019-04-14T18:17:10.561Z,10.77
2019-04-14T18:22:15.983Z,12.43
2019-04-14T18:27:21.536Z,12.00
2019-04-14T18:32:46.830Z,11.80
2019-04-14T18:38:14.819Z,12.80
2019-04-14T18:43:36.715Z,11.27
2019-04-14T18:49:07.069Z,11.47
2019-04-14T18:54:34.655Z,11.77
2019-04-14T18:59:57.673Z,12.10
2019-04-14T19:05:03.149Z,12.00
2019-04-14T19:10:08.976Z,12.57
2019-04-14T19:15:36.016Z,12.70
2019-04-14T19:20:45.091Z,12.37
2019-04-14T19:25:50.591Z,12.60
2019-04-14T19:30:56.041Z,12.87
2019-04-14T19:36:01.452Z,13.30
2019-04-14T19:41:07.174Z,12.57
2019-04-14T19:46:12.629Z,12.10
2019-04-14T19:51:18.228Z,12.60
2019-04-14T19:56:23.661Z,12.30
2019-04-14T20:01:29.120Z,12.10
2019-04-14T20:06:34.569Z,11.87
2019-04-14T20:11:40.056Z,12.00
2019-04-14T20:16:56.760Z,11.50
2019-04-14T20:22:17.298Z,10.93
2019-04-14T20:27:53.771Z,11.40
2019-04-14T20:32:59.276Z,10.47
2019-04-14T20:38:04.684Z,11.37
2019-04-14T20:43:10.308Z,10.93
2019-04-14T20:48:15.795Z,11.40
2019-04-14T20:53:21.205Z,11.13
2019-04-14T20:58:26.612Z,10.87
2019-04-14T21:03:49.100Z,10.67
2019-04-14T21:09:09.363Z,10.80
2019-04-14T21:14:33.826Z,12.03
2019-04-14T21:20:06.998Z,11.03
2019-04-14T21:25:40.215Z,11.20
2019-04-14T21:31:19.453Z,11.07
2019-04-14T21:36:29.808Z,10.87
2019-04-14T21:41:35.473Z,11.40
2019-04-14T21:46:40.948Z,10.80
2019-04-14T21:52:10.600Z,10.77
2019-04-14T21:57:34.918Z,10.37
2019-04-14T22:02:57.486Z,9.57
2019-04-14T22:08:15.385Z,10.17
2019-04-14T22:13:21.005Z,9.47
2019-04-14T22:18:26.518Z,9.87
2019-04-14T22:23:31.972Z,10.40
2019-04-14T22:28:37.441Z,10.00
2019-04-14T22:33:42.879Z,10.20
2019-04-14T22:38:48.313Z,9.47
2019-04-14T22:43:53.851Z,10.03
2019-04-14T22:48:59.262Z,9.73
2019-04-14T22:54:04.673Z,9.23
2019-04-14T22:59:10.157Z,8.63
2019-04-14T23:04:40.436Z,8.67
2019-04-14T23:09:54.066Z,9.17
2019-04-14T23:15:21.788Z,8.33
2019-04-14T23:20:35.638Z,8.53
2019-04-14T23:25:41.098Z,7.77
2019-04-14T23:30:46.622Z,8.10
2019-04-14T23:35:52.257Z,7.70
2019-04-14T23:40:57.684Z,7.27
2019-04-14T23:46:03.231Z,7.70
2019-04-14T23:51:08.831Z,6.97
2019-04-14T23:56:14.285Z,6.90
